Time;durP1;ratioP1;P1;durP2;ratioP2;P2;SDS_P1;SDS_P2;PMS_P1;PMS_P2;Temp;Humidity;BMP_temperature;BMP_pressure;BME280_temperature;BME280_humidity;BME280_pressure;Samples;Min_cycle;Max_cycle;Signal;HPM_P1;HPM_P2
2023/12/04 00:01:27;;;;;;;44.70;18.88;;;;;;;2.01;65.28;101812.94;5083888;27;96786;-81
2023/12/04 00:03:53;;;;;;;42.22;18.55;;;;;;;2.18;64.79;101821.91;5087175;27;96832;-80
2023/12/04 00:06:20;;;;;;;44.00;18.75;;;;;;;1.75;65.11;101815.13;5088768;27;97819;-80
2023/12/04 00:08:46;;;;;;;48.50;19.13;;;;;;;1.87;65.34;101817.03;5088040;27;97564;-81
2023/12/04 00:11:14;;;;;;;49.78;19.23;;;;;;;2.18;65.06;101805.38;5085664;27;96943;-80
2023/12/04 00:13:40;;;;;;;45.72;18.95;;;;;;;1.79;65.61;101806.47;5094042;27;96752;-81
2023/12/04 00:16:07;;;;;;;42.38;18.55;;;;;;;1.99;65.93;101815.50;5089995;27;99049;-78
2023/12/04 00:18:34;;;;;;;46.47;19.27;;;;;;;2.08;65.80;101811.31;5085890;27;102521;-79
2023/12/04 00:21:00;;;;;;;50.85;21.38;;;;;;;2.12;65.09;101811.38;5081538;27;97767;-79
2023/12/04 00:23:27;;;;;;;49.45;20.17;;;;;;;2.02;65.09;101806.88;5091516;27;96861;-79
2023/12/04 00:25:55;;;;;;;46.53;20.48;;;;;;;2.05;65.37;101811.25;5087125;27;101812;-80
2023/12/04 00:28:23;;;;;;;45.13;19.10;;;;;;;1.71;65.69;101810.69;5088212;27;100576;-80
2023/12/04 00:30:49;;;;;;;44.92;19.70;;;;;;;2.05;65.19;101808.63;5089129;27;97016;-79
2023/12/04 00:33:16;;;;;;;49.08;19.58;;;;;;;2.09;65.32;101813.06;5086382;27;96692;-79
2023/12/04 00:35:42;;;;;;;46.05;20.63;;;;;;;2.13;65.52;101814.88;5088493;27;99305;-80
2023/12/04 00:38:09;;;;;;;44.95;19.95;;;;;;;2.05;65.58;101813.84;5093453;27;98899;-79
2023/12/04 00:40:35;;;;;;;43.85;19.48;;;;;;;2.16;65.35;101812.31;5088587;27;97708;-79
2023/12/04 00:43:01;;;;;;;47.10;19.83;;;;;;;2.01;65.93;101815.53;5084631;27;96900;-78
2023/12/04 00:45:29;;;;;;;47.88;20.17;;;;;;;2.21;65.76;101821.09;5085181;27;98986;-79
2023/12/04 00:47:55;;;;;;;51.25;20.25;;;;;;;2.09;65.93;101820.91;5083558;27;98928;-78
2023/12/04 00:50:22;;;;;;;44.03;19.63;;;;;;;1.97;66.62;101824.16;5085210;27;96864;-80
2023/12/04 00:52:48;;;;;;;48.72;20.45;;;;;;;1.88;67.02;101818.81;5091531;27;97867;-78
2023/12/04 00:55:14;;;;;;;49.38;20.52;;;;;;;2.05;66.43;101829.50;5091132;27;98910;-79
2023/12/04 00:57:40;;;;;;;47.20;20.38;;;;;;;1.63;67.86;101833.13;5086483;27;101617;-81
2023/12/04 01:00:08;;;;;;;51.90;21.88;;;;;;;1.82;67.53;101823.91;5092245;27;96828;-82
2023/12/04 01:02:36;;;;;;;48.45;20.83;;;;;;;1.93;67.24;101819.75;5097096;27;97020;-83
2023/12/04 01:05:02;;;;;;;54.17;21.95;;;;;;;2.04;66.90;101825.13;5100092;27;97776;-82
2023/12/04 01:07:29;;;;;;;50.25;21.95;;;;;;;2.08;66.48;101825.22;5094836;27;98395;-82
2023/12/04 01:09:55;;;;;;;49.92;20.27;;;;;;;1.95;67.29;101818.06;5103883;27;98386;-83
2023/12/04 01:12:22;;;;;;;51.08;22.63;;;;;;;2.06;66.88;101810.41;5088710;27;98631;-76
2023/12/04 01:14:48;;;;;;;49.42;21.92;;;;;;;1.91;67.71;101814.50;5086182;27;98938;-75
2023/12/04 01:17:14;;;;;;;54.22;22.60;;;;;;;1.90;67.88;101809.28;5089202;27;99051;-75
2023/12/04 01:19:42;;;;;;;50.85;23.38;;;;;;;1.93;67.76;101814.53;5089886;27;97697;-74
2023/12/04 01:22:09;;;;;;;50.38;22.55;;;;;;;2.05;67.25;101811.25;5092760;27;96813;-75
2023/12/04 01:24:35;;;;;;;50.05;21.90;;;;;;;1.86;68.00;101815.28;5087304;27;98292;-73
2023/12/04 01:27:02;;;;;;;48.72;21.95;;;;;;;1.73;68.12;101805.50;5091021;27;99342;-73
2023/12/04 01:29:28;;;;;;;50.47;22.08;;;;;;;1.92;68.22;101802.34;5085369;27;96694;-72
2023/12/04 01:31:55;;;;;;;54.47;22.80;;;;;;;2.02;67.44;101804.28;5082085;27;99176;-72
2023/12/04 01:34:22;;;;;;;53.20;22.30;;;;;;;1.88;67.36;101806.66;5078077;27;99294;-72
2023/12/04 01:36:49;;;;;;;51.50;22.50;;;;;;;1.90;68.11;101791.88;5084810;27;98956;-76
2023/12/04 01:39:16;;;;;;;55.20;22.92;;;;;;;2.00;67.91;101786.00;5089541;27;96748;-75
2023/12/04 01:41:42;;;;;;;47.55;20.75;;;;;;;1.89;67.39;101782.34;5081092;27;97568;-75
2023/12/04 01:44:09;;;;;;;55.10;21.90;;;;;;;1.92;67.36;101781.50;5086414;27;100428;-73
2023/12/04 01:46:36;;;;;;;51.17;22.80;;;;;;;1.99;66.89;101784.22;5084525;27;98841;-74
2023/12/04 01:49:03;;;;;;;48.35;21.00;;;;;;;2.07;66.56;101786.09;5084281;27;96844;-74
2023/12/04 01:51:31;;;;;;;55.05;22.52;;;;;;;2.06;66.54;101786.94;5084979;27;98926;-74
2023/12/04 01:54:01;;;;;;;52.47;22.65;;;;;;;1.97;67.15;101787.66;5084728;27;98274;-75
2023/12/04 01:56:27;;;;;;;50.00;22.38;;;;;;;1.84;67.22;101770.06;5084816;27;99030;-75
2023/12/04 01:58:54;;;;;;;49.65;22.05;;;;;;;2.09;66.68;101774.84;5087931;27;96697;-75
2023/12/04 02:01:21;;;;;;;55.40;22.50;;;;;;;1.92;66.96;101779.78;5086856;27;98251;-75
2023/12/04 02:03:47;;;;;;;49.72;22.80;;;;;;;2.08;66.26;101777.41;5088840;27;99066;-74
2023/12/04 02:06:14;;;;;;;48.80;21.13;;;;;;;1.85;67.08;101775.31;5090002;27;98853;-74
2023/12/04 02:08:41;;;;;;;53.78;22.42;;;;;;;2.29;65.28;101782.97;5085858;27;97134;-74
2023/12/04 02:11:09;;;;;;;52.72;22.55;;;;;;;1.93;66.13;101776.31;5088341;27;98563;-75
2023/12/04 02:13:35;;;;;;;51.33;22.20;;;;;;;1.94;66.39;101771.97;5084922;27;99889;-74
2023/12/04 02:16:06;;;;;;;47.08;22.02;;;;;;;1.96;66.45;101768.56;5082217;27;100204;-74
2023/12/04 02:18:34;;;;;;;49.47;22.33;;;;;;;1.84;65.94;101770.94;5091813;27;96699;-75
2023/12/04 02:21:03;;;;;;;48.88;20.40;;;;;;;1.86;66.17;101758.81;5086722;27;98664;-74
2023/12/04 02:23:30;;;;;;;46.90;20.42;;;;;;;1.92;66.12;101769.34;5087357;27;98872;-74
2023/12/04 02:26:01;;;;;;;48.35;21.95;;;;;;;1.95;66.06;101758.97;5085150;27;98792;-74
2023/12/04 02:28:34;;;;;;;48.78;21.40;;;;;;;1.90;65.67;101758.00;5090602;27;96950;-75
2023/12/04 02:31:03;;;;;;;49.60;20.88;;;;;;;1.90;66.05;101755.41;5084590;27;96694;-76
2023/12/04 02:33:31;;;;;;;47.45;21.30;;;;;;;1.94;66.12;101746.81;5088308;27;101103;-75
2023/12/04 02:35:59;;;;;;;53.72;23.55;;;;;;;1.74;66.20;101747.31;5091887;27;101502;-75
2023/12/04 02:38:26;;;;;;;47.78;21.77;;;;;;;1.76;66.44;101751.72;5087578;27;97404;-75
2023/12/04 02:40:53;;;;;;;53.15;22.70;;;;;;;1.44;67.01;101739.88;5084357;27;97034;-75
2023/12/04 02:43:20;;;;;;;48.17;21.42;;;;;;;1.43;67.06;101741.63;5086721;27;98960;-76
2023/12/04 02:45:47;;;;;;;49.90;20.98;;;;;;;1.28;67.26;101740.44;5091568;27;99043;-75
2023/12/04 02:48:13;;;;;;;48.90;20.92;;;;;;;1.60;66.99;101739.28;5089866;27;96799;-75
2023/12/04 02:50:40;;;;;;;50.63;21.77;;;;;;;1.58;66.38;101727.94;5084620;27;96799;-75
2023/12/04 02:53:06;;;;;;;45.50;19.60;;;;;;;1.45;66.72;101736.41;5083874;27;99302;-76
2023/12/04 02:55:32;;;;;;;49.65;20.70;;;;;;;1.49;66.37;101733.91;5084976;27;98864;-75
2023/12/04 02:57:59;;;;;;;44.90;20.42;;;;;;;1.62;66.91;101719.34;5084846;27;97589;-75
2023/12/04 03:00:26;;;;;;;46.42;20.33;;;;;;;1.74;65.09;101722.16;5089130;27;97840;-76
2023/12/04 03:02:53;;;;;;;48.20;21.05;;;;;;;1.71;66.13;101721.25;5085968;27;99587;-75
2023/12/04 03:05:20;;;;;;;49.40;21.63;;;;;;;1.82;65.16;101712.72;5086520;27;99416;-75
2023/12/04 03:07:46;;;;;;;48.15;20.25;;;;;;;1.90;65.16;101716.31;5088891;27;98368;-75
2023/12/04 03:10:13;;;;;;;47.65;20.55;;;;;;;2.09;63.77;101711.38;5089011;27;97922;-75
2023/12/04 03:12:39;;;;;;;45.20;20.40;;;;;;;1.73;64.51;101707.38;5080316;27;99494;-75
2023/12/04 03:15:07;;;;;;;48.67;21.25;;;;;;;1.58;65.32;101704.50;5090883;27;102279;-75
2023/12/04 03:17:34;;;;;;;43.80;21.25;;;;;;;1.53;65.90;101712.25;5084281;27;98794;-75
2023/12/04 03:20:01;;;;;;;49.22;21.80;;;;;;;1.59;65.48;101701.06;5092672;27;96748;-73
2023/12/04 03:22:27;;;;;;;46.65;20.58;;;;;;;1.56;65.62;101701.91;5085682;27;99250;-73
2023/12/04 03:24:53;;;;;;;48.13;20.52;;;;;;;1.28;66.49;101697.06;5080301;27;99577;-73
2023/12/04 03:27:20;;;;;;;44.38;20.08;;;;;;;1.31;66.12;101701.47;5075103;27;99186;-73
2023/12/04 03:29:49;;;;;;;48.40;21.33;;;;;;;1.54;65.44;101700.09;5083177;27;96767;-74
2023/12/04 03:32:16;;;;;;;43.75;19.85;;;;;;;1.67;64.95;101696.84;5084948;27;99287;-74
2023/12/04 03:34:43;;;;;;;43.72;20.42;;;;;;;1.79;64.41;101699.63;5087553;27;99355;-74
2023/12/04 03:37:10;;;;;;;41.97;19.23;;;;;;;1.66;65.24;101695.09;5078449;27;97200;-74
2023/12/04 03:39:37;;;;;;;54.78;21.65;;;;;;;1.49;64.70;101706.97;5087577;27;96973;-74
2023/12/04 03:42:03;;;;;;;44.25;19.88;;;;;;;1.43;64.54;101691.25;5080956;27;99167;-74
2023/12/04 03:44:30;;;;;;;51.60;21.60;;;;;;;1.18;66.18;101696.00;5086112;27;101355;-74
2023/12/04 03:46:56;;;;;;;44.67;20.20;;;;;;;1.19;65.86;101687.34;5089853;27;96684;-74
2023/12/04 03:49:22;;;;;;;52.45;21.10;;;;;;;1.28;65.30;101688.38;5089854;27;96960;-74
2023/12/04 03:51:50;;;;;;;47.15;20.13;;;;;;;1.32;65.55;101684.97;5073661;27;99350;-73
2023/12/04 03:54:16;;;;;;;46.25;20.38;;;;;;;1.26;65.02;101677.06;5077815;27;100942;-74
2023/12/04 03:56:43;;;;;;;49.80;19.98;;;;;;;1.13;65.24;101669.03;5080576;27;96733;-74
2023/12/04 03:59:09;;;;;;;48.47;21.20;;;;;;;1.26;65.74;101669.25;5088558;27;96879;-76
2023/12/04 04:01:36;;;;;;;46.17;21.75;;;;;;;1.40;64.62;101668.63;5083244;27;99244;-75
2023/12/04 04:04:03;;;;;;;41.45;19.02;;;;;;;1.49;64.75;101668.78;5087631;27;101628;-74
2023/12/04 04:06:29;;;;;;;48.00;20.83;;;;;;;1.37;64.17;101667.72;5089177;27;96681;-74
2023/12/04 04:08:57;;;;;;;45.75;21.60;;;;;;;1.25;64.64;101665.75;5086310;27;96739;-75
2023/12/04 04:11:23;;;;;;;44.15;19.77;;;;;;;1.38;64.74;101667.72;5091551;27;98863;-75
2023/12/04 04:13:49;;;;;;;45.97;19.60;;;;;;;1.36;64.23;101671.16;5087656;27;99496;-76
2023/12/04 04:16:16;;;;;;;43.88;19.95;;;;;;;1.51;63.55;101669.66;5088611;27;96778;-75
2023/12/04 04:18:43;;;;;;;49.22;19.95;;;;;;;1.53;63.90;101665.38;5078565;27;96848;-75
2023/12/04 04:21:10;;;;;;;39.08;19.55;;;;;;;1.56;63.69;101660.22;5078607;27;98857;-75
2023/12/04 04:23:36;;;;;;;47.58;19.98;;;;;;;1.33;63.81;101665.88;5084375;27;101349;-75
2023/12/04 04:26:07;;;;;;;42.97;19.33;;;;;;;1.25;64.47;101675.31;5084594;27;98767;-74
2023/12/04 04:28:34;;;;;;;49.92;19.85;;;;;;;1.01;64.88;101668.81;5079681;27;98868;-76
2023/12/04 04:31:00;;;;;;;44.55;19.73;;;;;;;1.02;65.12;101673.19;5081602;27;99145;-76
2023/12/04 04:33:27;;;;;;;43.20;18.65;;;;;;;1.11;64.79;101675.97;5083607;27;98831;-75
2023/12/04 04:35:53;;;;;;;42.22;19.52;;;;;;;1.08;64.41;101669.81;5090490;27;97319;-76
2023/12/04 04:38:19;;;;;;;47.13;20.58;;;;;;;1.12;64.88;101674.19;5081573;27;96942;-74
2023/12/04 04:40:46;;;;;;;48.53;20.13;;;;;;;1.27;64.31;101671.00;5079060;27;98842;-73
2023/12/04 04:43:15;;;;;;;43.70;18.20;;;;;;;1.18;64.27;101672.59;5085078;27;100781;-74
2023/12/04 04:45:41;;;;;;;43.63;19.83;;;;;;;1.33;64.04;101660.69;5088999;27;96809;-73
2023/12/04 04:48:08;;;;;;;44.25;19.20;;;;;;;1.30;63.69;101664.13;5083094;27;96931;-73
2023/12/04 04:50:34;;;;;;;46.70;19.50;;;;;;;1.30;63.62;101665.84;5084221;27;99398;-74
2023/12/04 04:53:01;;;;;;;43.25;18.60;;;;;;;1.32;63.62;101662.41;5087813;27;98821;-75
2023/12/04 04:55:27;;;;;;;45.20;19.45;;;;;;;1.20;63.55;101651.78;5088646;27;97178;-74
2023/12/04 04:57:54;;;;;;;39.95;18.38;;;;;;;1.42;62.83;101647.81;5078976;27;97245;-75
2023/12/04 05:00:22;;;;;;;41.55;18.48;;;;;;;0.89;64.49;101653.00;5081189;27;99222;-75
2023/12/04 05:02:48;;;;;;;43.45;18.75;;;;;;;0.99;64.70;101651.41;5085782;27;101393;-76
2023/12/04 05:05:14;;;;;;;42.28;17.45;;;;;;;1.14;63.78;101657.78;5089842;27;96810;-75
2023/12/04 05:07:41;;;;;;;37.45;18.20;;;;;;;1.11;63.62;101649.94;5082822;27;97184;-75
2023/12/04 05:10:08;;;;;;;38.75;18.83;;;;;;;0.99;63.95;101641.88;5084433;27;98982;-75
2023/12/04 05:12:34;;;;;;;45.53;18.98;;;;;;;0.88;64.27;101643.41;5081783;27;100115;-74
2023/12/04 05:15:01;;;;;;;41.33;18.98;;;;;;;1.09;63.55;101638.59;5089183;27;97479;-75
2023/12/04 05:17:28;;;;;;;42.60;17.98;;;;;;;1.06;63.92;101638.53;5089309;27;96873;-74
2023/12/04 05:19:55;;;;;;;41.17;17.77;;;;;;;1.39;62.37;101634.72;5087682;27;101796;-75
2023/12/04 05:22:22;;;;;;;40.00;18.10;;;;;;;1.18;63.23;101623.13;5082697;27;98263;-75
2023/12/04 05:24:49;;;;;;;40.72;18.33;;;;;;;1.24;62.88;101627.56;5085686;27;97256;-75
2023/12/04 05:27:15;;;;;;;37.53;16.98;;;;;;;1.44;62.20;101620.09;5083686;27;96829;-75
2023/12/04 05:29:42;;;;;;;37.17;17.23;;;;;;;1.52;61.79;101618.44;5087903;27;101807;-74
2023/12/04 05:32:08;;;;;;;38.80;17.38;;;;;;;1.55;61.78;101608.97;5084019;27;98904;-75
2023/12/04 05:34:36;;;;;;;38.08;17.67;;;;;;;1.38;62.03;101610.41;5080105;27;102207;-74
2023/12/04 05:37:02;;;;;;;42.90;18.27;;;;;;;1.34;62.43;101610.34;5089543;27;96722;-74
2023/12/04 05:39:29;;;;;;;42.20;18.80;;;;;;;1.33;62.80;101608.59;5080916;27;99229;-74
2023/12/04 05:41:55;;;;;;;37.63;16.70;;;;;;;1.25;61.89;101605.03;5083330;27;101365;-72
2023/12/04 05:44:22;;;;;;;41.85;18.23;;;;;;;1.31;62.84;101607.72;5091122;27;97170;-72
2023/12/04 05:46:48;;;;;;;40.70;17.63;;;;;;;1.27;62.63;101604.19;5088518;27;97133;-72
2023/12/04 05:49:14;;;;;;;35.13;16.80;;;;;;;1.22;63.07;101603.25;5090360;27;99170;-72
2023/12/04 05:51:42;;;;;;;40.33;18.05;;;;;;;1.30;63.00;101611.19;5087219;27;99494;-73
2023/12/04 05:54:09;;;;;;;46.97;19.77;;;;;;;1.24;63.31;101605.88;5087833;27;96926;-74
2023/12/04 05:56:35;;;;;;;37.70;17.95;;;;;;;1.39;63.42;101603.47;5087726;27;97983;-74
2023/12/04 05:59:02;;;;;;;40.80;18.55;;;;;;;1.18;63.64;101604.91;5083989;27;99066;-74
2023/12/04 06:01:29;;;;;;;40.97;19.27;;;;;;;1.23;64.33;101607.59;5090959;27;99198;-74
2023/12/04 06:03:58;;;;;;;46.60;18.50;;;;;;;1.25;63.92;101598.06;5092829;27;97700;-73
2023/12/04 06:06:24;;;;;;;50.67;19.55;;;;;;;1.41;63.64;101600.06;5086311;27;96829;-73
2023/12/04 06:08:52;;;;;;;45.58;19.90;;;;;;;1.47;63.64;101604.50;5090951;27;98820;-74
2023/12/04 06:11:18;;;;;;;43.85;19.33;;;;;;;1.30;64.50;101605.97;5083555;27;98745;-73
2023/12/04 06:13:45;;;;;;;42.85;19.02;;;;;;;1.34;64.42;101599.94;5087615;27;96685;-73
2023/12/04 06:16:11;;;;;;;41.95;18.75;;;;;;;1.53;63.89;101602.84;5081758;27;96759;-74
2023/12/04 06:18:38;;;;;;;38.67;17.50;;;;;;;1.60;63.57;101594.28;5089640;27;98943;-73
2023/12/04 06:21:06;;;;;;;39.70;17.75;;;;;;;1.63;63.09;101603.00;5090980;27;98480;-73
2023/12/04 06:23:32;;;;;;;43.50;19.17;;;;;;;1.70;63.23;101599.63;5090064;27;96614;-74
2023/12/04 06:26:02;;;;;;;48.60;19.30;;;;;;;1.81;62.95;101603.25;5086669;27;96734;-73
2023/12/04 06:28:29;;;;;;;36.55;18.63;;;;;;;1.63;62.99;101601.28;5086046;27;98849;-73
2023/12/04 06:30:56;;;;;;;41.45;19.08;;;;;;;1.86;62.76;101605.06;5085352;27;98728;-74
2023/12/04 06:33:23;;;;;;;42.20;18.45;;;;;;;1.64;63.44;101596.94;5086116;27;97091;-74
2023/12/04 06:35:50;;;;;;;45.13;19.45;;;;;;;1.76;63.10;101592.78;5088946;27;98882;-74
2023/12/04 06:38:19;;;;;;;37.45;17.90;;;;;;;1.38;64.24;101586.97;5091528;27;98837;-74
2023/12/04 06:40:46;;;;;;;42.70;18.10;;;;;;;1.45;64.25;101591.44;5079705;27;99476;-74
2023/12/04 06:43:16;;;;;;;37.47;17.98;;;;;;;1.59;63.80;101589.03;5083205;27;96819;-74
2023/12/04 06:45:42;;;;;;;37.67;18.20;;;;;;;1.51;64.05;101585.47;5087895;27;96757;-74
2023/12/04 06:48:11;;;;;;;41.58;18.15;;;;;;;1.58;63.85;101584.66;5091253;27;99987;-74
2023/12/04 06:50:38;;;;;;;39.03;16.73;;;;;;;1.63;63.63;101584.75;5081743;27;98990;-74
2023/12/04 06:53:05;;;;;;;43.65;18.45;;;;;;;1.66;64.02;101585.66;5080780;27;97594;-74
2023/12/04 06:55:31;;;;;;;40.80;18.02;;;;;;;1.60;63.98;101575.16;5081709;27;97081;-74
2023/12/04 06:57:57;;;;;;;35.67;17.35;;;;;;;1.40;64.69;101569.66;5085147;27;100178;-74
2023/12/04 07:00:25;;;;;;;37.92;17.65;;;;;;;1.51;64.66;101570.69;5085857;27;101856;-74
2023/12/04 07:02:52;;;;;;;42.50;17.92;;;;;;;1.47;64.48;101562.81;5082050;27;96756;-75
2023/12/04 07:05:19;;;;;;;36.28;16.42;;;;;;;1.81;63.64;101562.44;5092251;27;96681;-75
2023/12/04 07:07:45;;;;;;;38.50;18.05;;;;;;;1.76;63.91;101558.91;5086696;27;98878;-74
2023/12/04 07:10:14;;;;;;;34.15;16.70;;;;;;;1.88;63.21;101559.03;5083227;27;98578;-76
2023/12/04 07:12:41;;;;;;;36.50;16.50;;;;;;;1.89;63.37;101552.97;5083760;27;97607;-76
2023/12/04 07:15:08;;;;;;;36.78;16.23;;;;;;;2.02;62.59;101551.41;5081084;27;97248;-74
2023/12/04 07:17:36;;;;;;;37.72;17.10;;;;;;;2.25;62.47;101549.03;5092410;27;102412;-73
2023/12/04 07:20:06;;;;;;;36.38;16.35;;;;;;;2.24;62.21;101547.28;5088238;27;98852;-73
2023/12/04 07:22:32;;;;;;;35.53;16.50;;;;;;;2.19;62.18;101543.75;5083643;27;96780;-74
2023/12/04 07:24:59;;;;;;;35.50;16.13;;;;;;;2.24;61.77;101542.06;5093220;27;97256;-74
2023/12/04 07:27:25;;;;;;;34.90;15.77;;;;;;;2.13;62.60;101541.97;5088780;27;99148;-74
2023/12/04 07:29:52;;;;;;;32.05;15.15;;;;;;;2.42;61.46;101544.03;5084737;27;98705;-73
2023/12/04 07:32:18;;;;;;;33.55;15.32;;;;;;;2.50;61.50;101543.22;5088627;27;97140;-73
2023/12/04 07:34:46;;;;;;;37.30;15.77;;;;;;;2.32;61.28;101543.03;5086465;27;96872;-73
2023/12/04 07:37:12;;;;;;;33.25;16.40;;;;;;;2.37;61.86;101544.84;5086330;27;98822;-74
2023/12/04 07:39:39;;;;;;;37.70;16.77;;;;;;;2.57;61.01;101552.84;5084190;27;99081;-74
2023/12/04 07:42:05;;;;;;;35.55;16.10;;;;;;;2.21;62.31;101549.88;5078292;27;96849;-73
2023/12/04 07:44:32;;;;;;;33.00;15.20;;;;;;;2.45;61.67;101542.31;5082411;27;98064;-74
2023/12/04 07:46:58;;;;;;;32.58;15.55;;;;;;;2.55;60.76;101543.28;5086265;27;101374;-74
2023/12/04 07:49:24;;;;;;;41.22;17.33;;;;;;;2.65;60.25;101538.16;5088962;27;99051;-74
2023/12/04 07:51:52;;;;;;;31.98;15.95;;;;;;;2.67;60.74;101540.78;5087807;27;97514;-74
2023/12/04 07:54:19;;;;;;;36.75;14.95;;;;;;;2.39;60.81;101537.03;5083586;27;98354;-73
2023/12/04 07:56:45;;;;;;;36.00;16.35;;;;;;;2.50;61.15;101532.78;5085268;27;99302;-74
2023/12/04 07:59:11;;;;;;;35.40;15.10;;;;;;;2.52;61.29;101540.63;5080041;27;99469;-73
2023/12/04 08:01:38;;;;;;;35.80;16.75;;;;;;;2.64;60.51;101544.22;5083538;27;96831;-74
2023/12/04 08:04:05;;;;;;;33.83;15.48;;;;;;;2.45;60.20;101542.31;5081266;27;97916;-74
2023/12/04 08:06:31;;;;;;;33.55;15.50;;;;;;;2.57;59.92;101538.94;5082567;27;100804;-74
2023/12/04 08:08:59;;;;;;;33.13;16.08;;;;;;;2.68;60.40;101532.97;5082820;27;101642;-76
2023/12/04 08:11:26;;;;;;;34.40;16.17;;;;;;;3.08;59.07;101539.41;5085102;27;96828;-75
2023/12/04 08:13:52;;;;;;;32.83;15.57;;;;;;;2.98;58.77;101536.69;5085297;27;96734;-75
2023/12/04 08:16:19;;;;;;;31.20;15.32;;;;;;;2.84;58.83;101535.72;5078453;27;98846;-75
2023/12/04 08:18:46;;;;;;;35.42;16.67;;;;;;;2.85;59.14;101532.25;5074843;27;98069;-74
2023/12/04 08:21:13;;;;;;;31.48;15.43;;;;;;;3.00;58.17;101529.75;5082275;27;96745;-74
2023/12/04 08:23:39;;;;;;;34.42;16.52;;;;;;;3.11;58.18;101528.97;5087481;27;96832;-74
2023/12/04 08:26:07;;;;;;;34.72;15.73;;;;;;;3.15;57.54;101527.28;5084642;27;98937;-74
2023/12/04 08:28:35;;;;;;;31.77;14.35;;;;;;;3.36;57.00;101529.13;5087199;27;99175;-74
2023/12/04 08:31:01;;;;;;;29.58;14.95;;;;;;;3.24;56.90;101540.38;5089566;27;96874;-74
2023/12/04 08:33:28;;;;;;;35.47;16.75;;;;;;;3.32;56.55;101537.81;5084639;27;96711;-74
2023/12/04 08:35:54;;;;;;;36.53;14.95;;;;;;;3.02;57.24;101533.28;5085649;27;98943;-74
2023/12/04 08:38:20;;;;;;;30.52;14.60;;;;;;;3.11;57.08;101530.72;5082451;27;101357;-74
2023/12/04 08:40:47;;;;;;;31.27;14.75;;;;;;;3.24;57.16;101529.06;5082393;27;97146;-75
2023/12/04 08:43:15;;;;;;;31.50;15.15;;;;;;;3.28;56.25;101526.50;5089046;27;96735;-75
2023/12/04 08:45:41;;;;;;;30.88;14.75;;;;;;;3.07;56.96;101526.34;5075521;27;99100;-73
2023/12/04 08:48:08;;;;;;;33.20;14.90;;;;;;;3.28;57.23;101523.88;5085173;27;99873;-74
2023/12/04 08:50:35;;;;;;;28.83;14.35;;;;;;;3.25;56.69;101529.06;5085802;27;97862;-75
2023/12/04 08:53:01;;;;;;;27.65;14.13;;;;;;;3.38;56.69;101520.44;5085264;27;97184;-79
2023/12/04 08:55:28;;;;;;;31.60;14.85;;;;;;;3.29;56.35;101523.00;5090442;27;101644;-79
2023/12/04 08:57:58;;;;;;;28.17;14.65;;;;;;;3.24;56.88;101522.09;5086477;27;99311;-79
2023/12/04 09:00:25;;;;;;;29.73;15.18;;;;;;;3.54;56.31;101519.66;5086690;27;96684;-78
2023/12/04 09:02:52;;;;;;;28.00;14.63;;;;;;;3.51;55.73;101517.03;5077458;27;96918;-79
2023/12/04 09:05:19;;;;;;;29.52;14.35;;;;;;;3.11;56.34;101522.88;5090712;27;101185;-80
2023/12/04 09:07:45;;;;;;;30.83;14.55;;;;;;;3.52;55.70;101521.41;5080992;27;101019;-79
2023/12/04 09:10:11;;;;;;;29.42;13.60;;;;;;;3.42;56.05;101519.59;5081021;27;98795;-79
2023/12/04 09:12:38;;;;;;;30.23;14.77;;;;;;;3.48;55.89;101513.53;5087610;27;97525;-79
2023/12/04 09:15:05;;;;;;;31.10;16.05;;;;;;;3.65;55.68;101521.47;5081838;27;100887;-79
2023/12/04 09:17:33;;;;;;;30.23;15.32;;;;;;;3.49;55.57;101526.59;5089526;27;102323;-79
2023/12/04 09:19:59;;;;;;;33.28;16.33;;;;;;;3.53;55.65;101523.16;5089555;27;97135;-79
2023/12/04 09:22:26;;;;;;;31.45;15.13;;;;;;;3.51;55.74;101519.66;5086590;27;96719;-79
2023/12/04 09:24:52;;;;;;;29.27;14.52;;;;;;;3.33;56.12;101530.00;5087710;27;98996;-79
2023/12/04 09:27:19;;;;;;;34.00;14.52;;;;;;;3.33;56.29;101526.53;5088488;27;99292;-79
2023/12/04 09:29:47;;;;;;;29.80;14.98;;;;;;;3.39;56.70;101519.59;5088233;27;98891;-79
2023/12/04 09:32:13;;;;;;;28.23;14.55;;;;;;;3.66;55.93;101520.59;5084518;27;98232;-79
2023/12/04 09:34:41;;;;;;;32.35;15.43;;;;;;;3.73;55.71;101517.16;5080099;27;99219;-79
2023/12/04 09:37:08;;;;;;;29.20;14.27;;;;;;;3.62;55.59;101519.69;5077894;27;98883;-78
2023/12/04 09:39:35;;;;;;;27.58;14.00;;;;;;;3.55;55.69;101520.53;5089636;27;96987;-78
2023/12/04 09:42:02;;;;;;;28.50;13.85;;;;;;;3.61;55.22;101518.81;5081712;27;98579;-79
2023/12/04 09:44:30;;;;;;;30.10;14.00;;;;;;;3.30;56.69;101514.28;5086013;27;99446;-80
2023/12/04 09:46:56;;;;;;;30.98;14.27;;;;;;;3.64;56.22;101514.50;5083519;27;97935;-79
2023/12/04 09:49:23;;;;;;;33.58;14.98;;;;;;;3.75;55.85;101512.78;5079584;27;98075;-79
2023/12/04 09:51:52;;;;;;;26.45;13.95;;;;;;;3.91;55.70;101512.00;5085083;27;97813;-79
2023/12/04 09:54:19;;;;;;;29.17;15.02;;;;;;;3.52;56.38;101508.34;5081593;27;98941;-79
2023/12/04 09:56:45;;;;;;;29.75;15.00;;;;;;;3.66;56.03;101507.53;5077956;27;99084;-79
2023/12/04 09:59:14;;;;;;;27.92;13.60;;;;;;;3.48;56.03;101517.00;5086454;27;96776;-79
2023/12/04 10:01:41;;;;;;;28.58;14.45;;;;;;;3.46;56.47;101505.69;5084863;27;97422;-79
2023/12/04 10:04:08;;;;;;;29.25;15.35;;;;;;;3.29;57.01;101501.22;5076562;27;97707;-80
2023/12/04 10:06:38;;;;;;;27.70;13.82;;;;;;;3.55;56.93;101495.28;5082886;27;101618;-80
2023/12/04 10:09:11;;;;;;;31.00;15.13;;;;;;;3.81;55.86;101492.78;5078897;27;96769;-79
2023/12/04 10:11:40;;;;;;;30.73;13.70;;;;;;;3.74;55.97;101495.38;5087277;27;97003;-79
2023/12/04 10:14:15;;;;;;;26.85;13.40;;;;;;;3.98;55.07;101492.84;5084538;27;99222;-80
2023/12/04 10:16:42;;;;;;;28.02;14.27;;;;;;;4.14;54.40;101491.13;5084804;27;98795;-80
2023/12/04 10:19:20;;;;;;;27.58;13.70;;;;;;;4.10;55.04;101487.66;5083645;27;96924;-79
2023/12/04 10:21:47;;;;;;;24.88;11.52;;;;;;;3.88;54.59;101478.84;5081677;27;96779;-80
2023/12/04 10:24:28;;;;;;;31.80;14.30;;;;;;;4.09;53.77;101485.91;5077927;27;99284;-79
2023/12/04 10:26:54;;;;;;;25.88;13.05;;;;;;;3.81;54.67;101476.22;5087248;27;97535;-80
2023/12/04 10:29:21;;;;;;;25.20;13.68;;;;;;;3.63;55.31;101471.78;5086665;27;96745;-79
2023/12/04 10:31:50;;;;;;;26.20;13.00;;;;;;;3.42;56.47;101469.94;5083423;27;97060;-79
2023/12/04 10:34:16;;;;;;;26.05;12.25;;;;;;;3.81;55.27;101461.41;5080924;27;97779;-79
2023/12/04 10:36:45;;;;;;;25.80;12.77;;;;;;;4.15;54.75;101465.00;5081528;27;101621;-78
2023/12/04 10:39:13;;;;;;;27.10;13.60;;;;;;;3.92;55.20;101451.00;5078943;27;97787;-78
2023/12/04 10:41:40;;;;;;;25.50;13.38;;;;;;;4.09;54.95;101445.78;5074622;27;97956;-79
2023/12/04 10:44:07;;;;;;;25.30;13.43;;;;;;;4.14;54.54;101444.06;5082399;27;98841;-79
2023/12/04 10:46:37;;;;;;;24.58;12.93;;;;;;;4.03;54.56;101446.66;5078001;27;98759;-79
2023/12/04 10:49:05;;;;;;;31.63;12.63;;;;;;;4.00;54.60;101444.91;5079818;27;96774;-79
2023/12/04 10:51:31;;;;;;;24.10;12.35;;;;;;;4.05;54.85;101433.59;5083295;27;98584;-79
2023/12/04 10:53:58;;;;;;;28.92;13.55;;;;;;;4.34;54.38;101437.97;5082257;27;97976;-79
2023/12/04 10:56:30;;;;;;;28.20;12.73;;;;;;;4.57;54.35;101429.28;5084322;27;98842;-79
2023/12/04 10:59:01;;;;;;;25.27;13.18;;;;;;;4.15;54.81;101420.53;5085314;27;97340;-79
2023/12/04 11:01:28;;;;;;;28.27;12.82;;;;;;;4.34;54.59;101417.06;5087064;27;97295;-79
2023/12/04 11:03:59;;;;;;;23.10;11.77;;;;;;;4.58;53.25;101421.44;5079812;27;99195;-80
2023/12/04 11:06:30;;;;;;;22.95;12.38;;;;;;;4.40;53.92;101405.72;5081454;27;98842;-80
2023/12/04 11:09:02;;;;;;;24.17;12.52;;;;;;;4.32;54.47;101407.47;5080325;27;97361;-80
2023/12/04 11:11:32;;;;;;;23.23;12.20;;;;;;;4.24;54.69;101398.75;5078381;27;97432;-79
2023/12/04 11:14:02;;;;;;;27.52;12.88;;;;;;;4.07;55.00;101406.56;5080467;27;101950;-80
2023/12/04 11:16:36;;;;;;;24.15;13.20;;;;;;;4.26;54.68;101408.34;5077613;27;101031;-80